Time;durP1;ratioP1;P1;durP2;ratioP2;P2;SDS_P1;SDS_P2;PMS_P1;PMS_P2;Temp;Humidity;BMP_temperature;BMP_pressure;BME280_temperature;BME280_humidity;BME280_pressure;Samples;Min_cycle;Max_cycle;Signal;HPM_P1;HPM_P2
2023/04/18 00:00:35;;;;;;;;;;;13.80;99.90;;;;;;5093890;28;20523;-61
2023/04/18 00:03:01;;;;;;;;;;;13.70;99.90;;;;;;5093641;28;20371;-61
2023/04/18 00:05:26;;;;;;;;;;;13.70;99.90;;;;;;5093925;28;19993;-61
2023/04/18 00:07:52;;;;;;;;;;;13.60;99.90;;;;;;5093702;28;19993;-61
2023/04/18 00:10:17;;;;;;;;;;;13.60;99.90;;;;;;5093512;28;19985;-61
2023/04/18 00:12:43;;;;;;;;;;;13.40;99.90;;;;;;5093727;28;19984;-61
2023/04/18 00:15:10;;;;;;;;;;;13.30;99.90;;;;;;5093634;28;19998;-61
2023/04/18 00:17:37;;;;;;;;;;;13.30;99.90;;;;;;5093709;28;19985;-61
2023/04/18 00:20:03;;;;;;;;;;;13.30;99.90;;;;;;5093826;28;19996;-61
2023/04/18 00:22:29;;;;;;;;;;;13.30;99.90;;;;;;5093607;28;19985;-61
2023/04/18 00:24:54;;;;;;;;;;;13.30;99.90;;;;;;5093909;28;19993;-61
2023/04/18 00:27:20;;;;;;;;;;;13.40;99.90;;;;;;5093548;28;19997;-61
2023/04/18 00:29:46;;;;;;;;;;;13.40;99.90;;;;;;5093515;28;20047;-61
2023/04/18 00:32:12;;;;;;;;;;;13.40;99.90;;;;;;5093573;28;20443;-61
2023/04/18 00:34:39;;;;;;;;;;;13.40;99.90;;;;;;5096306;28;19992;-61
2023/04/18 00:37:05;;;;;;;;;;;13.40;99.90;;;;;;5097353;28;20035;-62
2023/04/18 00:39:30;;;;;;;;;;;13.40;99.90;;;;;;5097597;28;20390;-61
2023/04/18 00:41:56;;;;;;;;;;;13.50;99.90;;;;;;5097366;28;19985;-61
2023/04/18 00:44:21;;;;;;;;;;;13.50;99.90;;;;;;5097463;28;20005;-61
2023/04/18 00:46:47;;;;;;;;;;;13.50;99.90;;;;;;5097696;28;20076;-61
2023/04/18 00:49:13;;;;;;;;;;;13.50;99.90;;;;;;5097303;28;20443;-61
2023/04/18 00:51:39;;;;;;;;;;;13.40;99.90;;;;;;5097640;28;20000;-61
2023/04/18 00:54:05;;;;;;;;;;;13.30;99.90;;;;;;5097270;28;20011;-61
2023/04/18 00:56:31;;;;;;;;;;;13.30;99.90;;;;;;5097181;28;20086;-61
2023/04/18 00:58:56;;;;;;;;;;;13.30;99.90;;;;;;5097097;28;19993;-61
2023/04/18 01:01:22;;;;;;;;;;;13.30;99.90;;;;;;5097416;28;20335;-61
2023/04/18 01:03:48;;;;;;;;;;;13.30;99.90;;;;;;5097041;28;20016;-61
2023/04/18 01:06:13;;;;;;;;;;;13.30;99.90;;;;;;5096785;28;20049;-61
2023/04/18 01:08:40;;;;;;;;;;;13.30;99.90;;;;;;5096916;28;20034;-61
2023/04/18 01:11:05;;;;;;;;;;;13.30;99.90;;;;;;5097049;28;19992;-62
2023/04/18 01:13:31;;;;;;;;;;;13.20;99.90;;;;;;5096834;28;19985;-61
2023/04/18 01:15:57;;;;;;;;;;;13.20;99.90;;;;;;5097188;28;19996;-61
2023/04/18 01:18:24;;;;;;;;;;;13.20;99.90;;;;;;5096893;28;20030;-61
2023/04/18 01:20:50;;;;;;;;;;;13.20;99.90;;;;;;5096537;28;20367;-61
2023/04/18 01:23:16;;;;;;;;;;;13.20;99.90;;;;;;5096903;28;20044;-62
2023/04/18 01:25:43;;;;;;;;;;;13.20;99.90;;;;;;5096954;28;19993;-61
2023/04/18 01:28:09;;;;;;;;;;;13.30;99.90;;;;;;5096578;28;19985;-61
2023/04/18 01:30:34;;;;;;;;;;;13.20;99.90;;;;;;5096502;28;20012;-61
2023/04/18 01:33:01;;;;;;;;;;;13.30;99.90;;;;;;5096492;28;19993;-61
2023/04/18 01:35:26;;;;;;;;;;;13.20;99.90;;;;;;5096259;28;19998;-61
2023/04/18 01:37:52;;;;;;;;;;;13.30;99.90;;;;;;5096116;28;20020;-61
2023/04/18 01:40:17;;;;;;;;;;;13.30;99.90;;;;;;5096460;28;20079;-61
2023/04/18 01:42:43;;;;;;;;;;;13.40;99.90;;;;;;5096230;28;20005;-61
2023/04/18 01:45:10;;;;;;;;;;;13.50;99.90;;;;;;5095007;28;20439;-61
2023/04/18 01:47:35;;;;;;;;;;;13.50;99.90;;;;;;5096207;28;20405;-62
2023/04/18 01:50:01;;;;;;;;;;;13.60;99.90;;;;;;5096067;28;19989;-61
2023/04/18 01:52:27;;;;;;;;;;;13.50;99.90;;;;;;5096367;28;20362;-61
2023/04/18 01:54:52;;;;;;;;;;;13.40;99.90;;;;;;5096144;28;19985;-61
2023/04/18 01:57:18;;;;;;;;;;;13.40;99.90;;;;;;5096034;28;19989;-62
2023/04/18 01:59:43;;;;;;;;;;;13.40;99.90;;;;;;5095981;28;20079;-62
2023/04/18 02:02:10;;;;;;;;;;;13.40;99.90;;;;;;5096166;28;19996;-61
2023/04/18 02:04:35;;;;;;;;;;;13.30;99.90;;;;;;5095659;28;20004;-61
2023/04/18 02:07:01;;;;;;;;;;;13.30;99.90;;;;;;5096075;28;20355;-61
2023/04/18 02:09:26;;;;;;;;;;;13.20;99.90;;;;;;5095743;28;20359;-61
2023/04/18 02:11:55;;;;;;;;;;;13.10;99.90;;;;;;5095880;28;20080;-61
2023/04/18 02:14:20;;;;;;;;;;;13.10;99.90;;;;;;5095870;28;20031;-61
2023/04/18 02:16:46;;;;;;;;;;;13.10;99.90;;;;;;5095562;28;19992;-61
2023/04/18 02:19:12;;;;;;;;;;;13.10;99.90;;;;;;5095572;28;19985;-61
2023/04/18 02:21:37;;;;;;;;;;;13.00;99.90;;;;;;5095823;28;20079;-61
2023/04/18 02:24:03;;;;;;;;;;;13.00;99.90;;;;;;5095386;28;20005;-61
2023/04/18 02:26:28;;;;;;;;;;;13.00;99.90;;;;;;5095476;28;19993;-61
2023/04/18 02:28:54;;;;;;;;;;;13.10;99.90;;;;;;5095456;28;20055;-62
2023/04/18 02:31:20;;;;;;;;;;;13.10;99.90;;;;;;5095276;28;20005;-61
2023/04/18 02:33:46;;;;;;;;;;;13.20;99.90;;;;;;5095306;28;19991;-61
2023/04/18 02:36:12;;;;;;;;;;;13.20;99.90;;;;;;5095764;28;19989;-61
2023/04/18 02:38:37;;;;;;;;;;;13.20;99.90;;;;;;5095031;28;20521;-61
2023/04/18 02:41:03;;;;;;;;;;;13.20;99.90;;;;;;5095339;28;19995;-61
2023/04/18 02:43:29;;;;;;;;;;;13.30;99.90;;;;;;5095332;28;20378;-61
2023/04/18 02:45:55;;;;;;;;;;;13.30;99.90;;;;;;5095187;28;20458;-61
2023/04/18 02:48:21;;;;;;;;;;;13.30;99.90;;;;;;5094749;28;20025;-61
2023/04/18 02:50:46;;;;;;;;;;;13.30;99.90;;;;;;5095326;28;19989;-62
2023/04/18 02:53:12;;;;;;;;;;;13.20;99.90;;;;;;5095024;28;19992;-61
2023/04/18 02:55:38;;;;;;;;;;;13.20;99.90;;;;;;5094844;28;20030;-62
2023/04/18 02:58:03;;;;;;;;;;;13.20;99.90;;;;;;5094548;28;20070;-61
2023/04/18 03:00:29;;;;;;;;;;;13.20;99.90;;;;;;5095131;28;20443;-61
2023/04/18 03:02:54;;;;;;;;;;;13.20;99.90;;;;;;5094439;28;20032;-61
2023/04/18 03:05:20;;;;;;;;;;;13.20;99.90;;;;;;5095006;28;19993;-61
2023/04/18 03:07:46;;;;;;;;;;;13.20;99.90;;;;;;5094873;28;19984;-61
2023/04/18 03:10:11;;;;;;;;;;;13.20;99.90;;;;;;5094879;28;19996;-61
2023/04/18 03:12:37;;;;;;;;;;;13.20;99.90;;;;;;5094907;28;20383;-61
2023/04/18 03:15:03;;;;;;;;;;;13.20;99.90;;;;;;5094644;28;19989;-61
2023/04/18 03:17:28;;;;;;;;;;;13.20;99.90;;;;;;5094373;28;19991;-61
2023/04/18 03:19:54;;;;;;;;;;;13.20;99.90;;;;;;5094356;28;20011;-61
2023/04/18 03:22:20;;;;;;;;;;;13.20;99.90;;;;;;5094344;28;19992;-61
2023/04/18 03:24:45;;;;;;;;;;;13.30;99.90;;;;;;5094528;28;20038;-61
2023/04/18 03:27:11;;;;;;;;;;;13.30;99.90;;;;;;5094601;28;20076;-61
2023/04/18 03:29:37;;;;;;;;;;;13.20;99.90;;;;;;5094502;28;19986;-62
2023/04/18 03:32:03;;;;;;;;;;;13.20;99.90;;;;;;5094387;28;20064;-61
2023/04/18 03:34:28;;;;;;;;;;;13.20;99.90;;;;;;5094084;28;19993;-61
2023/04/18 03:36:54;;;;;;;;;;;13.20;99.90;;;;;;5094008;28;20034;-61
2023/04/18 03:39:20;;;;;;;;;;;13.20;99.90;;;;;;5094465;28;20043;-61
2023/04/18 03:41:45;;;;;;;;;;;13.30;99.90;;;;;;5094345;28;19989;-61
2023/04/18 03:44:11;;;;;;;;;;;13.40;99.90;;;;;;5094032;28;20436;-61
2023/04/18 03:46:36;;;;;;;;;;;13.40;99.90;;;;;;5093935;28;19989;-61
2023/04/18 03:49:02;;;;;;;;;;;13.40;99.90;;;;;;5094026;28;19992;-61
2023/04/18 03:51:31;;;;;;;;;;;13.40;99.90;;;;;;5093899;28;19993;-61
2023/04/18 03:53:56;;;;;;;;;;;13.40;99.90;;;;;;5094223;28;20020;-61
2023/04/18 03:56:22;;;;;;;;;;;13.40;99.90;;;;;;5093931;28;20031;-61
2023/04/18 03:58:47;;;;;;;;;;;13.30;99.90;;;;;;5093847;28;20042;-61
2023/04/18 04:01:13;;;;;;;;;;;13.30;99.90;;;;;;5093692;28;19985;-61
2023/04/18 04:03:39;;;;;;;;;;;13.30;99.90;;;;;;5093791;28;20069;-61
2023/04/18 04:06:05;;;;;;;;;;;13.30;99.90;;;;;;5093777;28;19995;-61
2023/04/18 04:08:30;;;;;;;;;;;13.20;99.90;;;;;;5093188;28;19985;-61
2023/04/18 04:10:56;;;;;;;;;;;13.10;99.90;;;;;;5093741;28;19989;-61
2023/04/18 04:13:21;;;;;;;;;;;13.10;99.90;;;;;;5093744;28;20031;-61
2023/04/18 04:15:47;;;;;;;;;;;13.00;99.90;;;;;;5093814;28;19992;-61
2023/04/18 04:18:12;;;;;;;;;;;12.90;99.90;;;;;;5093716;28;20351;-61
2023/04/18 04:20:38;;;;;;;;;;;12.90;99.90;;;;;;5093981;28;19989;-62
2023/04/18 04:23:05;;;;;;;;;;;12.90;99.90;;;;;;5093509;28;20005;-61
2023/04/18 04:25:32;;;;;;;;;;;13.10;99.90;;;;;;5093932;28;20003;-62
2023/04/18 04:28:00;;;;;;;;;;;13.20;99.90;;;;;;5093606;28;20458;-61
2023/04/18 04:30:25;;;;;;;;;;;13.30;99.90;;;;;;5093330;28;20008;-61
2023/04/18 04:32:52;;;;;;;;;;;13.30;99.90;;;;;;5093587;28;19985;-62
2023/04/18 04:35:17;;;;;;;;;;;13.20;99.90;;;;;;5093883;28;20344;-61
2023/04/18 04:37:43;;;;;;;;;;;13.20;99.90;;;;;;5093463;28;20070;-61
2023/04/18 04:40:09;;;;;;;;;;;13.10;99.90;;;;;;5093554;28;19993;-61
2023/04/18 04:42:35;;;;;;;;;;;13.00;99.90;;;;;;5093398;28;20034;-61
2023/04/18 04:45:01;;;;;;;;;;;13.10;99.90;;;;;;5093191;28;20034;-62
2023/04/18 04:47:27;;;;;;;;;;;13.10;99.90;;;;;;5093413;28;19990;-61
2023/04/18 04:49:52;;;;;;;;;;;13.00;99.90;;;;;;5093531;28;19992;-61
2023/04/18 04:52:18;;;;;;;;;;;13.10;99.90;;;;;;5092887;28;20522;-61
2023/04/18 04:54:45;;;;;;;;;;;13.10;99.90;;;;;;5091974;28;20435;-62
2023/04/18 04:57:11;;;;;;;;;;;13.00;99.90;;;;;;5091701;28;20080;-61
2023/04/18 04:59:36;;;;;;;;;;;13.00;99.90;;;;;;5092561;28;20424;-62
2023/04/18 05:02:02;;;;;;;;;;;13.10;99.90;;;;;;5092672;28;20038;-61
2023/04/18 05:04:28;;;;;;;;;;;13.10;99.90;;;;;;5092455;28;20009;-61
2023/04/18 05:06:53;;;;;;;;;;;13.10;99.90;;;;;;5093225;28;20046;-61
2023/04/18 05:09:19;;;;;;;;;;;13.20;99.90;;;;;;5092943;28;19993;-61
2023/04/18 05:11:45;;;;;;;;;;;13.20;99.90;;;;;;5093247;28;20460;-61
2023/04/18 05:14:11;;;;;;;;;;;13.30;99.90;;;;;;5091540;28;20008;-61
2023/04/18 05:16:36;;;;;;;;;;;13.40;99.90;;;;;;5093043;28;20439;-61
2023/04/18 05:19:02;;;;;;;;;;;13.40;99.90;;;;;;5093248;28;20026;-61
2023/04/18 05:21:28;;;;;;;;;;;13.40;99.90;;;;;;5096243;28;20046;-62
2023/04/18 05:23:54;;;;;;;;;;;13.30;99.90;;;;;;5096741;28;20012;-61
2023/04/18 05:26:20;;;;;;;;;;;13.40;99.90;;;;;;5096972;28;19997;-65
2023/04/18 05:28:46;;;;;;;;;;;13.40;99.90;;;;;;5098464;28;20435;-61
2023/04/18 05:31:11;;;;;;;;;;;13.40;99.90;;;;;;5105270;28;20004;-62
2023/04/18 05:33:37;;;;;;;;;;;13.40;99.90;;;;;;5104911;28;20054;-61
2023/04/18 05:36:02;;;;;;;;;;;13.40;99.90;;;;;;5103778;28;20031;-61
2023/04/18 05:38:28;;;;;;;;;;;13.50;99.90;;;;;;5104479;28;20016;-61
2023/04/18 05:40:54;;;;;;;;;;;13.60;99.90;;;;;;5104943;28;19989;-61
2023/04/18 05:43:20;;;;;;;;;;;13.60;99.90;;;;;;5101259;28;20017;-62
2023/04/18 05:45:45;;;;;;;;;;;13.70;99.90;;;;;;5095914;28;20431;-62
2023/04/18 05:48:11;;;;;;;;;;;13.80;99.90;;;;;;5095863;28;19993;-61
2023/04/18 05:50:37;;;;;;;;;;;13.90;99.90;;;;;;5095492;28;19989;-62
2023/04/18 05:53:02;;;;;;;;;;;14.10;99.90;;;;;;5095969;28;20430;-62
2023/04/18 05:55:28;;;;;;;;;;;14.20;99.90;;;;;;5095692;28;19989;-62
2023/04/18 05:57:53;;;;;;;;;;;14.20;99.90;;;;;;5094013;28;20028;-63
2023/04/18 06:00:19;;;;;;;;;;;14.30;99.90;;;;;;5094010;28;20583;-62
2023/04/18 06:02:45;;;;;;;;;;;14.30;99.90;;;;;;5094109;28;19996;-62
2023/04/18 06:05:11;;;;;;;;;;;14.40;99.90;;;;;;5094380;28;19989;-62
2023/04/18 06:07:36;;;;;;;;;;;14.40;99.90;;;;;;5094482;28;19988;-61
2023/04/18 06:10:02;;;;;;;;;;;14.40;99.90;;;;;;5095181;28;20015;-62
2023/04/18 06:12:28;;;;;;;;;;;14.40;99.90;;;;;;5091302;28;20083;-62
2023/04/18 06:14:53;;;;;;;;;;;14.40;99.90;;;;;;5089014;28;19997;-62
2023/04/18 06:17:22;;;;;;;;;;;14.40;99.90;;;;;;5101577;28;19997;-62
2023/04/18 06:19:48;;;;;;;;;;;14.30;99.90;;;;;;5099692;28;20067;-61
2023/04/18 06:22:14;;;;;;;;;;;14.40;99.90;;;;;;5104627;28;19996;-62
2023/04/18 06:24:40;;;;;;;;;;;14.40;99.90;;;;;;5103573;28;20039;-62
2023/04/18 06:27:05;;;;;;;;;;;14.40;99.90;;;;;;5096213;28;20039;-61
2023/04/18 06:29:32;;;;;;;;;;;14.30;99.90;;;;;;5093576;28;20471;-62
2023/04/18 06:31:58;;;;;;;;;;;14.30;99.90;;;;;;5097969;28;20457;-62
2023/04/18 06:34:23;;;;;;;;;;;14.30;99.90;;;;;;5096596;28;19989;-64
2023/04/18 06:36:49;;;;;;;;;;;14.40;99.90;;;;;;5096671;28;19997;-63
2023/04/18 06:39:15;;;;;;;;;;;14.40;99.90;;;;;;5093566;28;20024;-62
2023/04/18 06:41:40;;;;;;;;;;;14.40;99.90;;;;;;5093382;28;20351;-61
2023/04/18 06:44:06;;;;;;;;;;;14.40;99.90;;;;;;5099079;28;20359;-61
2023/04/18 06:46:32;;;;;;;;;;;14.60;99.90;;;;;;5095408;28;20336;-60
2023/04/18 06:48:59;;;;;;;;;;;14.70;99.90;;;;;;5090899;28;21397;-62
2023/04/18 06:51:26;;;;;;;;;;;14.60;99.90;;;;;;5091951;28;19989;-62
2023/04/18 06:53:52;;;;;;;;;;;14.50;99.90;;;;;;5089732;28;20424;-62
2023/04/18 06:56:19;;;;;;;;;;;14.50;99.90;;;;;;5092069;28;19989;-62
2023/04/18 06:58:44;;;;;;;;;;;14.60;99.90;;;;;;5089824;28;20356;-66
2023/04/18 07:01:10;;;;;;;;;;;14.80;99.90;;;;;;5091658;28;20088;-67
2023/04/18 07:03:36;;;;;;;;;;;15.00;99.90;;;;;;5084388;28;20009;-63
2023/04/18 07:06:02;;;;;;;;;;;15.10;99.90;;;;;;5091438;28;19989;-61
2023/04/18 07:08:27;;;;;;;;;;;15.30;99.90;;;;;;5090948;28;19989;-65
2023/04/18 07:10:53;;;;;;;;;;;15.50;99.90;;;;;;5093837;28;19995;-64
2023/04/18 07:13:18;;;;;;;;;;;15.60;99.90;;;;;;5100555;28;19997;-66
2023/04/18 07:15:44;;;;;;;;;;;15.60;99.90;;;;;;5100015;28;19989;-64
2023/04/18 07:18:09;;;;;;;;;;;15.60;99.90;;;;;;5091405;28;20000;-66
2023/04/18 07:20:35;;;;;;;;;;;15.70;99.90;;;;;;5091684;28;20000;-63
2023/04/18 07:23:00;;;;;;;;;;;15.70;99.90;;;;;;5090898;28;20009;-63
2023/04/18 07:25:26;;;;;;;;;;;15.70;99.90;;;;;;5092464;28;20004;-61
2023/04/18 07:27:52;;;;;;;;;;;15.70;99.90;;;;;;5091921;28;20004;-64
2023/04/18 07:30:17;;;;;;;;;;;15.60;99.90;;;;;;5090824;28;20008;-65
2023/04/18 07:32:43;;;;;;;;;;;15.60;99.90;;;;;;5090572;28;20066;-64
2023/04/18 07:35:09;;;;;;;;;;;15.60;99.90;;;;;;5090265;28;20087;-66
2023/04/18 07:37:35;;;;;;;;;;;15.60;99.90;;;;;;5088368;28;20057;-65
2023/04/18 07:40:00;;;;;;;;;;;15.70;99.90;;;;;;5090681;28;19989;-65
2023/04/18 07:42:26;;;;;;;;;;;15.80;99.90;;;;;;5091474;28;19992;-64
2023/04/18 07:44:58;;;;;;;;;;;15.80;99.90;;;;;;5091289;28;20009;-62
2023/04/18 07:47:24;;;;;;;;;;;15.90;99.90;;;;;;5099746;28;20020;-63
2023/04/18 07:49:50;;;;;;;;;;;15.80;99.90;;;;;;5094837;28;20054;-62
2023/04/18 07:52:15;;;;;;;;;;;15.90;99.90;;;;;;5090877;28;20462;-66
2023/04/18 07:54:41;;;;;;;;;;;16.00;99.90;;;;;;5089426;28;20400;-61
2023/04/18 07:57:06;;;;;;;;;;;16.10;99.90;;;;;;5086882;28;19993;-62
2023/04/18 07:59:32;;;;;;;;;;;16.00;99.90;;;;;;5091891;28;20035;-62
2023/04/18 08:01:57;;;;;;;;;;;16.00;99.90;;;;;;5096428;28;19989;-63
2023/04/18 08:04:23;;;;;;;;;;;16.00;99.90;;;;;;5093283;28;20058;-65
2023/04/18 08:06:49;;;;;;;;;;;16.00;99.90;;;;;;5094627;28;20370;-64
2023/04/18 08:09:14;;;;;;;;;;;15.90;99.90;;;;;;5094700;28;19995;-64
2023/04/18 08:11:41;;;;;;;;;;;15.80;99.90;;;;;;5079403;28;20095;-64
2023/04/18 08:14:07;;;;;;;;;;;15.90;99.90;;;;;;5081325;28;20435;-65
2023/04/18 08:16:33;;;;;;;;;;;15.90;99.90;;;;;;5085010;28;19996;-65
2023/04/18 08:18:58;;;;;;;;;;;15.80;99.90;;;;;;5080274;28;19996;-65
2023/04/18 08:21:25;;;;;;;;;;;15.90;99.90;;;;;;5083749;28;20491;-68
2023/04/18 08:23:51;;;;;;;;;;;15.80;99.90;;;;;;5087286;28;20466;-66
2023/04/18 08:26:16;;;;;;;;;;;15.90;99.90;;;;;;5089879;28;20050;-65
2023/04/18 08:28:45;;;;;;;;;;;15.70;99.90;;;;;;5089947;28;19993;-65
2023/04/18 08:31:12;;;;;;;;;;;15.60;99.90;;;;;;5093116;28;20317;-64
2023/04/18 08:33:37;;;;;;;;;;;15.60;99.90;;;;;;5084041;28;20405;-65
2023/04/18 08:36:03;;;;;;;;;;;15.70;99.90;;;;;;5083147;28;19989;-65
2023/04/18 08:38:32;;;;;;;;;;;15.70;99.90;;;;;;5080337;28;20111;-64
2023/04/18 08:41:19;;;;;;;;;;;15.70;99.90;;;;;;5077489;28;19994;-63
2023/04/18 08:43:49;;;;;;;;;;;15.70;99.90;;;;;;5080088;28;20524;-63
2023/04/18 08:46:17;;;;;;;;;;;15.70;99.90;;;;;;5078393;28;20004;-64
2023/04/18 08:48:43;;;;;;;;;;;15.60;99.90;;;;;;5073042;28;19993;-63
2023/04/18 08:51:10;;;;;;;;;;;15.50;99.90;;;;;;5083535;28;19993;-63
2023/04/18 08:54:03;;;;;;;;;;;15.60;99.90;;;;;;5086693;28;20054;-65
2023/04/18 08:56:30;;;;;;;;;;;15.50;99.90;;;;;;5080482;28;19997;-62
2023/04/18 08:59:01;;;;;;;;;;;15.30;99.90;;;;;;5085681;28;20087;-65
2023/04/18 09:02:02;;;;;;;;;;;15.40;99.90;;;;;;5088577;28;19989;-63
2023/04/18 09:04:43;;;;;;;;;;;15.50;99.90;;;;;;5075769;28;20027;-62
2023/04/18 09:07:14;;;;;;;;;;;15.70;99.90;;;;;;5086723;28;20039;-61
2023/04/18 09:09:45;;;;;;;;;;;15.80;99.90;;;;;;5092564;28;19997;-67
2023/04/18 09:12:16;;;;;;;;;;;15.80;99.90;;;;;;5093584;28;19992;-62
2023/04/18 09:14:47;;;;;;;;;;;15.70;99.90;;;;;;5090871;28;19989;-61
2023/04/18 09:17:31;;;;;;;;;;;15.80;99.90;;;;;;5087794;28;19997;-63
2023/04/18 09:19:57;;;;;;;;;;;15.90;99.90;;;;;;5089049;28;20035;-65
2023/04/18 09:22:32;;;;;;;;;;;16.00;99.90;;;;;;5093727;28;19993;-66
2023/04/18 09:25:07;;;;;;;;;;;16.00;99.90;;;;;;5090739;28;19997;-66
2023/04/18 09:27:33;;;;;;;;;;;16.30;99.90;;;;;;5097164;28;19996;-64
2023/04/18 09:29:59;;;;;;;;;;;16.40;99.90;;;;;;5091313;28;19989;-63
2023/04/18 09:32:28;;;;;;;;;;;16.50;99.90;;;;;;5094753;28;20004;-64
2023/04/18 09:34:56;;;;;;;;;;;16.60;99.90;;;;;;5089848;28;20503;-63
2023/04/18 09:37:22;;;;;;;;;;;16.90;99.90;;;;;;5090989;28;20021;-62
2023/04/18 09:39:49;;;;;;;;;;;16.90;99.90;;;;;;5095677;28;19995;-64
2023/04/18 09:42:16;;;;;;;;;;;17.10;99.90;;;;;;5094506;28;19990;-63
2023/04/18 09:45:02;;;;;;;;;;;17.20;99.90;;;;;;5084181;28;20424;-61
2023/04/18 09:47:28;;;;;;;;;;;17.50;99.90;;;;;;5083922;28;20590;-64
2023/04/18 09:49:54;;;;;;;;;;;18.00;99.90;;;;;;5087164;28;20413;-62
2023/04/18 09:52:21;;;;;;;;;;;19.00;99.90;;;;;;5097232;28;20095;-62
2023/04/18 09:54:48;;;;;;;;;;;19.00;99.90;;;;;;5096393;28;19989;-63
2023/04/18 09:57:15;;;;;;;;;;;18.90;99.90;;;;;;5093638;28;20122;-63
2023/04/18 09:59:50;;;;;;;;;;;18.50;99.90;;;;;;5091582;28;19989;-64
2023/04/18 10:02:21;;;;;;;;;;;18.40;99.90;;;;;;5095499;28;20375;-66
2023/04/18 10:04:48;;;;;;;;;;;18.30;99.90;;;;;;5102104;28;20292;-63
2023/04/18 10:07:16;;;;;;;;;;;18.40;99.90;;;;;;5084753;28;19996;-64
2023/04/18 10:09:44;;;;;;;;;;;18.40;99.90;;;;;;5088814;28;19993;-65
2023/04/18 10:12:11;;;;;;;;;;;18.40;99.90;;;;;;5084368;28;19999;-64
2023/04/18 10:14:38;;;;;;;;;;;18.30;99.90;;;;;;5089520;28;19989;-68
2023/04/18 10:17:03;;;;;;;;;;;18.20;99.90;;;;;;5087324;28;20668;-65
2023/04/18 10:19:29;;;;;;;;;;;18.10;99.90;;;;;;5076669;28;19990;-65
2023/04/18 10:21:56;;;;;;;;;;;18.10;99.90;;;;;;5078594;28;19989;-65
2023/04/18 10:24:40;;;;;;;;;;;18.10;99.90;;;;;;5083794;28;20464;-64
2023/04/18 10:27:06;;;;;;;;;;;18.00;99.90;;;;;;5096298;28;19993;-65
2023/04/18 10:29:51;;;;;;;;;;;18.00;99.90;;;;;;5091595;28;19996;-61
2023/04/18 10:32:23;;;;;;;;;;;18.00;99.90;;;;;;5093337;28;20017;-62
2023/04/18 10:34:52;;;;;;;;;;;18.20;99.90;;;;;;5087709;28;20005;-63
2023/04/18 10:37:18;;;;;;;;;;;18.30;99.90;;;;;;5083541;28;20754;-65
2023/04/18 10:39:47;;;;;;;;;;;18.50;99.90;;;;;;5091117;28;20115;-63
2023/04/18 10:42:13;;;;;;;;;;;18.70;99.90;;;;;;5085642;28;20038;-61
2023/04/18 10:44:39;;;;;;;;;;;18.80;99.90;;;;;;5087967;28;20009;-65
2023/04/18 10:47:08;;;;;;;;;;;19.00;99.90;;;;;;5089422;28;19997;-63
2023/04/18 10:49:55;;;;;;;;;;;19.10;99.90;;;;;;5085363;28;19989;-61
2023/04/18 10:52:31;;;;;;;;;;;19.00;99.90;;;;;;5080272;28;20036;-61
2023/04/18 10:55:16;;;;;;;;;;;18.90;99.90;;;;;;5086045;28;20039;-61
2023/04/18 10:57:49;;;;;;;;;;;18.90;99.90;;;;;;5090254;28;19993;-64
2023/04/18 11:00:16;;;;;;;;;;;18.90;99.90;;;;;;5092719;28;19996;-66
2023/04/18 11:02:58;;;;;;;;;;;19.00;99.90;;;;;;5094938;28;20017;-62
2023/04/18 11:05:34;;;;;;;;;;;19.00;98.80;;;;;;5096389;28;19997;-63
2023/04/18 11:08:01;;;;;;;;;;;19.10;99.90;;;;;;5094140;28;20027;-63
2023/04/18 11:10:37;;;;;;;;;;;19.30;97.60;;;;;;5097684;28;20029;-61
2023/04/18 11:13:05;;;;;;;;;;;19.40;96.60;;;;;;5093339;28;20028;-62
2023/04/18 11:15:38;;;;;;;;;;;19.30;91.70;;;;;;5090218;28;19996;-63
2023/04/18 11:18:04;;;;;;;;;;;19.30;97.30;;;;;;5089748;28;19989;-62
2023/04/18 11:20:38;;;;;;;;;;;19.50;96.90;;;;;;5086441;28;20003;-61
2023/04/18 11:23:13;;;;;;;;;;;19.20;98.50;;;;;;5095092;28;20091;-61
2023/04/18 11:25:39;;;;;;;;;;;19.10;97.10;;;;;;5106470;28;19996;-64
2023/04/18 11:28:05;;;;;;;;;;;19.10;99.40;;;;;;5087315;28;20351;-62
2023/04/18 11:30:37;;;;;;;;;;;19.20;99.10;;;;;;5077817;28;19997;-63
2023/04/18 11:33:07;;;;;;;;;;;19.10;97.00;;;;;;5070299;28;20009;-64
2023/04/18 11:35:35;;;;;;;;;;;19.20;98.00;;;;;;5071594;28;19997;-63
2023/04/18 11:38:01;;;;;;;;;;;19.10;98.60;;;;;;5091662;28;20107;-61
2023/04/18 11:40:26;;;;;;;;;;;19.10;98.80;;;;;;5092492;28;20123;-61
2023/04/18 11:42:53;;;;;;;;;;;19.10;98.80;;;;;;5110426;28;19985;-64
2023/04/18 11:45:18;;;;;;;;;;;19.00;98.70;;;;;;5110515;28;19988;-61
2023/04/18 11:47:45;;;;;;;;;;;18.80;99.90;;;;;;5099290;28;19989;-68
2023/04/18 11:50:11;;;;;;;;;;;18.60;99.90;;;;;;5096454;28;19992;-62
2023/04/18 11:52:37;;;;;;;;;;;18.40;99.90;;;;;;5096799;28;19992;-62
2023/04/18 11:55:23;;;;;;;;;;;18.20;99.90;;;;;;5092131;28;19989;-63
2023/04/18 11:58:01;;;;;;;;;;;18.00;99.90;;;;;;5090722;28;20029;-65
2023/04/18 12:00:32;;;;;;;;;;;17.90;99.90;;;;;;5091658;28;19992;-62
2023/04/18 12:02:58;;;;;;;;;;;17.80;99.90;;;;;;5091070;28;20011;-62
2023/04/18 12:05:26;;;;;;;;;;;18.00;99.90;;;;;;5085974;28;19996;-66
2023/04/18 12:07:52;;;;;;;;;;;18.10;99.90;;;;;;5096434;28;20350;-62
2023/04/18 12:10:35;;;;;;;;;;;18.20;99.90;;;;;;5095625;28;19993;-64
2023/04/18 12:13:05;;;;;;;;;;;18.40;99.90;;;;;;5096666;28;19994;-63
2023/04/18 12:15:33;;;;;;;;;;;18.60;99.90;;;;;;5098568;28;20003;-64
2023/04/18 12:18:05;;;;;;;;;;;18.80;99.90;;;;;;5091877;28;19989;-62
2023/04/18 12:20:33;;;;;;;;;;;19.00;99.90;;;;;;5084309;28;19993;-61
2023/04/18 12:23:04;;;;;;;;;;;19.10;99.90;;;;;;5090070;28;20008;-62
2023/04/18 12:25:30;;;;;;;;;;;19.20;99.90;;;;;;5100740;28;20003;-61
2023/04/18 12:28:03;;;;;;;;;;;19.40;99.90;;;;;;5110528;28;19999;-61
2023/04/18 12:30:30;;;;;;;;;;;19.50;99.90;;;;;;5090950;28;20038;-61
2023/04/18 12:33:08;;;;;;;;;;;19.60;98.60;;;;;;5115145;28;20040;-61
2023/04/18 12:35:34;;;;;;;;;;;19.70;99.40;;;;;;5102555;28;20012;-62
2023/04/18 12:38:00;;;;;;;;;;;19.60;97.30;;;;;;5090526;28;20017;-62
2023/04/18 12:40:27;;;;;;;;;;;19.60;98.30;;;;;;5089728;28;20071;-61
2023/04/18 12:42:53;;;;;;;;;;;19.40;98.40;;;;;;5093423;28;19989;-61
2023/04/18 12:45:20;;;;;;;;;;;19.30;97.60;;;;;;5088831;28;20470;-62
2023/04/18 12:47:46;;;;;;;;;;;19.40;97.30;;;;;;5098377;28;20459;-61
2023/04/18 12:50:16;;;;;;;;;;;19.40;97.90;;;;;;5100569;28;20380;-62
2023/04/18 12:52:43;;;;;;;;;;;19.50;99.00;;;;;;5097095;28;20454;-61
2023/04/18 12:55:09;;;;;;;;;;;19.50;97.40;;;;;;5098766;27;20361;-61
2023/04/18 12:57:35;;;;;;;;;;;19.60;99.70;;;;;;5104975;28;20095;-61
2023/04/18 13:00:01;;;;;;;;;;;19.80;98.10;;;;;;5115290;28;20068;-61
2023/04/18 13:02:27;;;;;;;;;;;19.80;98.10;;;;;;5114030;28;20035;-62
2023/04/18 13:04:54;;;;;;;;;;;19.80;95.90;;;;;;5114042;28;20494;-60
2023/04/18 13:07:20;;;;;;;;;;;19.70;96.10;;;;;;5115150;28;20003;-61
2023/04/18 13:09:46;;;;;;;;;;;19.70;94.50;;;;;;5114459;28;20040;-61
2023/04/18 13:12:11;;;;;;;;;;;20.00;98.30;;;;;;5112729;28;19988;-62
2023/04/18 13:14:37;;;;;;;;;;;20.10;96.50;;;;;;5113939;28;19996;-62
2023/04/18 13:17:03;;;;;;;;;;;20.20;94.30;;;;;;5114702;27;19993;-60
2023/04/18 13:19:29;;;;;;;;;;;20.20;91.80;;;;;;5114589;28;20097;-60
2023/04/18 13:21:54;;;;;;;;;;;20.00;93.20;;;;;;5115478;28;19985;-59
2023/04/18 13:24:20;;;;;;;;;;;19.70;96.50;;;;;;5115463;28;20008;-60
2023/04/18 13:26:46;;;;;;;;;;;19.70;96.70;;;;;;5116429;28;20086;-60
2023/04/18 13:29:11;;;;;;;;;;;19.70;96.90;;;;;;5117058;28;19985;-59
2023/04/18 13:31:37;;;;;;;;;;;19.70;91.80;;;;;;5117282;28;19988;-62
2023/04/18 13:34:02;;;;;;;;;;;19.60;93.30;;;;;;5116127;28;20527;-60
2023/04/18 13:36:28;;;;;;;;;;;19.60;94.50;;;;;;5116755;28;20358;-62
2023/04/18 13:38:53;;;;;;;;;;;19.70;91.40;;;;;;5116085;28;20392;-60
2023/04/18 13:41:19;;;;;;;;;;;19.80;90.50;;;;;;5116710;28;20079;-62
2023/04/18 13:43:45;;;;;;;;;;;19.80;92.90;;;;;;5116808;28;20004;-62
2023/04/18 13:46:10;;;;;;;;;;;19.60;92.60;;;;;;5116643;28;19999;-61
2023/04/18 13:48:36;;;;;;;;;;;19.60;92.50;;;;;;5116703;28;20076;-60
2023/04/18 13:51:01;;;;;;;;;;;19.50;93.10;;;;;;5116939;28;20091;-60
2023/04/18 13:53:27;;;;;;;;;;;19.40;94.90;;;;;;5116436;28;19988;-60
2023/04/18 13:55:52;;;;;;;;;;;19.20;92.70;;;;;;5116401;28;20039;-60
2023/04/18 13:58:18;;;;;;;;;;;19.00;94.00;;;;;;5116775;28;19997;-62
2023/04/18 14:00:44;;;;;;;;;;;18.70;95.40;;;;;;5116437;28;20031;-61
2023/04/18 14:03:10;;;;;;;;;;;18.50;96.90;;;;;;5116254;28;20250;-61
2023/04/18 14:05:35;;;;;;;;;;;18.40;96.30;;;;;;5116485;28;20442;-61
2023/04/18 14:08:02;;;;;;;;;;;18.20;98.00;;;;;;5115022;28;19988;-61
2023/04/18 14:10:29;;;;;;;;;;;18.00;99.90;;;;;;5116160;28;20443;-61
2023/04/18 14:12:55;;;;;;;;;;;17.80;99.90;;;;;;5116382;28;20439;-61
2023/04/18 14:15:20;;;;;;;;;;;17.80;99.90;;;;;;5116104;28;19992;-62